createdAt,value
2023-04-14T00:00:33.352Z,31.70
2023-04-14T00:03:17.568Z,29.85
2023-04-14T00:05:46.377Z,29.52
2023-04-14T00:08:14.715Z,30.60
2023-04-14T00:10:43.444Z,29.95
2023-04-14T00:13:13.224Z,26.63
2023-04-14T00:15:42.461Z,27.10
2023-04-14T00:18:10.760Z,27.33
2023-04-14T00:20:40.112Z,24.52
2023-04-14T00:23:08.453Z,30.55
2023-04-14T00:25:37.120Z,29.58
2023-04-14T00:28:05.409Z,32.05
2023-04-14T00:30:35.426Z,28.83
2023-04-14T00:33:03.732Z,27.90
2023-04-14T00:35:32.905Z,27.02
2023-04-14T00:38:01.079Z,25.23
2023-04-14T00:40:30.582Z,29.48
2023-04-14T00:42:58.702Z,32.75
2023-04-14T00:45:27.504Z,29.83
2023-04-14T00:47:57.444Z,26.15
2023-04-14T00:50:26.053Z,28.45
2023-04-14T00:52:54.281Z,28.38
2023-04-14T00:55:22.997Z,29.42
2023-04-14T00:57:51.641Z,31.20
2023-04-14T01:00:20.378Z,32.08
2023-04-14T01:02:48.702Z,35.50
2023-04-14T01:05:19.128Z,34.08
2023-04-14T01:07:48.444Z,33.42
2023-04-14T01:10:17.153Z,36.20
2023-04-14T01:13:03.724Z,36.45
2023-04-14T01:15:37.064Z,36.88
2023-04-14T01:18:12.038Z,38.40
2023-04-14T01:20:43.809Z,41.05
2023-04-14T01:23:14.708Z,41.55
2023-04-14T01:26:08.091Z,36.72
2023-04-14T01:28:47.307Z,33.42
2023-04-14T01:31:28.482Z,33.90
2023-04-14T01:34:00.294Z,34.10
2023-04-14T01:36:34.397Z,31.27
2023-04-14T01:39:03.595Z,35.47
2023-04-14T01:41:33.538Z,35.58
2023-04-14T01:44:03.158Z,34.67
2023-04-14T01:46:34.214Z,34.70
2023-04-14T01:49:02.713Z,38.03
2023-04-14T01:51:32.255Z,33.17
2023-04-14T01:54:00.862Z,32.58
2023-04-14T01:56:29.573Z,32.58
2023-04-14T01:58:59.099Z,33.15
2023-04-14T02:01:29.230Z,32.30
2023-04-14T02:03:59.686Z,30.48
2023-04-14T02:06:28.630Z,31.42
2023-04-14T02:08:57.247Z,37.05
2023-04-14T02:11:26.375Z,30.15
2023-04-14T02:13:56.159Z,31.92
2023-04-14T02:16:25.997Z,30.58
2023-04-14T02:18:54.310Z,30.02
2023-04-14T02:21:25.897Z,29.27
2023-04-14T02:23:53.997Z,33.55
2023-04-14T02:26:23.629Z,28.38
2023-04-14T02:28:55.953Z,34.97
2023-04-14T02:31:26.792Z,31.13
2023-04-14T02:33:56.024Z,32.30
2023-04-14T02:36:32.501Z,28.33
2023-04-14T02:39:03.556Z,26.90
2023-04-14T02:41:32.750Z,29.48
2023-04-14T02:44:07.008Z,34.33
2023-04-14T02:46:38.654Z,29.58
2023-04-14T02:51:37.850Z,28.58
2023-04-14T02:54:07.150Z,31.48
2023-04-14T02:56:36.147Z,31.75
2023-04-14T02:59:04.798Z,33.72
2023-04-14T03:01:33.398Z,35.80
2023-04-14T03:04:01.924Z,38.40
2023-04-14T03:06:31.734Z,41.80
2023-04-14T03:09:01.804Z,43.47
2023-04-14T03:11:30.918Z,44.53
2023-04-14T03:14:00.376Z,43.90
2023-04-14T03:16:30.324Z,42.75
2023-04-14T03:18:59.912Z,41.25
2023-04-14T03:21:30.218Z,44.65
2023-04-14T03:23:58.994Z,47.33
2023-04-14T03:26:29.598Z,46.97
2023-04-14T03:28:58.682Z,41.45
2023-04-14T03:31:31.662Z,39.40
2023-04-14T03:34:01.555Z,36.38
2023-04-14T03:36:31.167Z,39.45
2023-04-14T03:39:01.675Z,41.13
2023-04-14T03:41:34.347Z,39.63
2023-04-14T03:44:03.758Z,41.25
2023-04-14T03:46:32.227Z,37.33
2023-04-14T03:49:02.441Z,39.45
2023-04-14T03:51:33.504Z,36.88
2023-04-14T03:54:02.544Z,36.55
2023-04-14T03:56:32.776Z,30.08
2023-04-14T03:59:01.794Z,33.03
2023-04-14T04:01:30.669Z,30.45
2023-04-14T04:03:59.561Z,29.90
2023-04-14T04:06:28.437Z,30.13
2023-04-14T04:08:57.374Z,32.55
2023-04-14T04:11:27.495Z,31.85
2023-04-14T04:13:58.490Z,30.20
2023-04-14T04:16:29.196Z,32.65
2023-04-14T04:18:58.160Z,30.83
2023-04-14T04:21:28.454Z,27.88
2023-04-14T04:23:57.667Z,26.08
2023-04-14T04:26:26.644Z,24.67
2023-04-14T04:28:58.339Z,23.08
2023-04-14T04:31:28.994Z,26.20
2023-04-14T04:33:58.217Z,27.45
2023-04-14T04:36:27.884Z,25.05
2023-04-14T04:38:57.130Z,24.67
2023-04-14T04:41:26.363Z,24.90
2023-04-14T04:43:54.786Z,26.33
2023-04-14T04:46:43.892Z,25.13
2023-04-14T04:49:12.152Z,25.35
2023-04-14T04:51:40.877Z,26.70
2023-04-14T04:54:09.108Z,27.10
2023-04-14T04:56:37.895Z,27.67
2023-04-14T04:59:06.994Z,25.15
2023-04-14T05:01:36.970Z,27.90
2023-04-14T05:04:05.571Z,24.65
2023-04-14T05:06:37.161Z,25.92
2023-04-14T05:11:34.241Z,23.10
2023-04-14T05:14:02.934Z,26.00
2023-04-14T05:16:31.628Z,25.42
2023-04-14T05:19:01.384Z,20.30
2023-04-14T05:21:30.031Z,27.40
2023-04-14T05:23:58.366Z,27.75
2023-04-14T05:26:48.854Z,30.42
2023-04-14T05:29:15.408Z,25.35
2023-04-14T05:31:43.894Z,27.10
2023-04-14T05:34:13.502Z,25.83
2023-04-14T05:36:41.960Z,24.77
2023-04-14T05:39:10.694Z,28.27
2023-04-14T05:41:39.163Z,30.63
2023-04-14T05:44:07.323Z,31.20
2023-04-14T05:46:35.901Z,30.73
2023-04-14T05:49:05.044Z,32.17
2023-04-14T05:51:34.914Z,32.65
2023-04-14T05:54:03.337Z,33.97
2023-04-14T05:56:31.964Z,35.65
2023-04-14T05:59:00.598Z,33.08
2023-04-14T06:01:29.177Z,35.03
2023-04-14T06:03:57.516Z,36.83
2023-04-14T06:06:26.375Z,41.55
2023-04-14T06:08:56.485Z,36.42
2023-04-14T06:11:25.213Z,37.80
2023-04-14T06:13:53.659Z,38.58
2023-04-14T06:16:22.415Z,38.65
2023-04-14T06:18:50.789Z,38.17
2023-04-14T06:21:19.462Z,40.47
2023-04-14T06:23:47.694Z,43.22
2023-04-14T06:26:45.121Z,41.20
2023-04-14T06:29:13.340Z,39.63
2023-04-14T06:31:41.942Z,40.92
2023-04-14T06:34:10.284Z,37.10
2023-04-14T06:36:38.929Z,38.45
2023-04-14T06:39:07.198Z,41.72
2023-04-14T06:41:37.119Z,37.33
2023-04-14T06:44:05.562Z,38.08
2023-04-14T06:46:36.338Z,36.83
2023-04-14T06:49:04.790Z,37.13
2023-04-14T06:51:35.043Z,35.13
2023-04-14T06:54:03.715Z,37.78
2023-04-14T06:56:32.475Z,32.78
2023-04-14T06:59:02.025Z,34.75
2023-04-14T07:01:30.533Z,34.72
2023-04-14T07:03:59.104Z,33.60
2023-04-14T07:06:27.995Z,34.10
2023-04-14T07:08:56.397Z,33.20
2023-04-14T07:11:24.885Z,36.15
2023-04-14T07:13:53.136Z,31.23
2023-04-14T07:16:23.253Z,32.65
2023-04-14T07:18:51.714Z,34.03
2023-04-14T07:21:20.399Z,35.22
2023-04-14T07:23:48.764Z,35.00
2023-04-14T07:26:17.273Z,32.40
2023-04-14T07:28:45.461Z,34.17
2023-04-14T07:31:13.953Z,36.42
2023-04-14T07:33:43.639Z,39.67
2023-04-14T07:36:12.261Z,37.65
2023-04-14T07:38:52.431Z,31.55
2023-04-14T07:41:21.271Z,35.40
2023-04-14T07:43:49.598Z,34.85
2023-04-14T07:46:18.116Z,29.67
2023-04-14T07:48:47.931Z,37.25
2023-04-14T07:51:16.710Z,33.78
2023-04-14T07:53:45.244Z,34.75
2023-04-14T07:56:14.281Z,37.15
2023-04-14T07:58:42.483Z,33.80
2023-04-14T08:01:11.029Z,32.28
2023-04-14T08:03:41.306Z,31.92
2023-04-14T08:06:12.832Z,30.75
2023-04-14T08:08:41.022Z,26.80
2023-04-14T08:11:09.532Z,25.92
2023-04-14T08:13:37.744Z,25.13
2023-04-14T08:16:06.511Z,26.08
2023-04-14T08:18:34.802Z,23.50
2023-04-14T08:21:03.292Z,22.95
2023-04-14T08:23:32.836Z,22.83
2023-04-14T08:26:01.379Z,24.55
2023-04-14T08:28:29.828Z,20.08
2023-04-14T08:30:59.709Z,18.30
2023-04-14T08:33:27.868Z,18.80
2023-04-14T08:35:59.712Z,17.13
2023-04-14T08:38:29.416Z,14.45
2023-04-14T08:41:08.412Z,16.55
2023-04-14T08:43:36.745Z,16.42
2023-04-14T08:46:06.416Z,22.08
2023-04-14T08:48:37.058Z,19.48
2023-04-14T08:51:08.836Z,20.20
2023-04-14T08:53:42.893Z,17.63
2023-04-14T08:56:14.218Z,17.17
2023-04-14T08:58:43.137Z,15.73
2023-04-14T09:01:13.840Z,16.35
2023-04-14T09:03:52.997Z,15.73
2023-04-14T09:06:26.430Z,17.65
2023-04-14T09:08:55.066Z,15.20
2023-04-14T09:11:25.010Z,18.25
2023-04-14T09:13:54.837Z,16.48
2023-04-14T09:16:23.282Z,13.07
2023-04-14T09:18:55.540Z,16.10
2023-04-14T09:21:29.565Z,13.50
2023-04-14T09:24:23.573Z,13.80
2023-04-14T09:26:53.767Z,9.48
2023-04-14T09:29:21.955Z,13.02
2023-04-14T09:31:50.845Z,15.85
2023-04-14T09:34:20.379Z,9.02
2023-04-14T09:37:03.623Z,9.75
2023-04-14T09:39:32.504Z,10.68
2023-04-14T09:42:03.179Z,9.77
2023-04-14T09:44:31.734Z,8.07
2023-04-14T09:47:01.850Z,7.85
2023-04-14T09:49:31.222Z,7.90
2023-04-14T09:52:05.252Z,9.18
2023-04-14T09:54:33.703Z,9.98
2023-04-14T09:57:06.337Z,9.00
2023-04-14T09:59:35.593Z,5.80
2023-04-14T10:02:06.216Z,5.20
2023-04-14T10:04:36.033Z,4.53
2023-04-14T10:07:09.062Z,6.57
2023-04-14T10:09:38.870Z,6.45
2023-04-14T10:12:21.698Z,4.80
2023-04-14T10:14:52.134Z,23.17
2023-04-14T10:17:29.141Z,10.45
2023-04-14T10:19:58.344Z,6.35
2023-04-14T10:22:27.889Z,7.72
2023-04-14T10:24:56.428Z,10.48
2023-04-14T10:27:30.885Z,9.00
2023-04-14T10:30:02.592Z,13.18
2023-04-14T10:32:37.992Z,7.35
2023-04-14T10:35:10.959Z,17.10
2023-04-14T10:37:39.727Z,18.48
2023-04-14T10:40:08.702Z,14.15
2023-04-14T10:42:57.418Z,8.35
2023-04-14T10:45:25.606Z,8.77
2023-04-14T10:47:54.217Z,7.18
2023-04-14T10:50:26.057Z,7.50
2023-04-14T10:52:59.048Z,11.65
2023-04-14T10:55:28.173Z,6.15
2023-04-14T10:58:06.250Z,6.65
2023-04-14T11:00:39.023Z,5.38
2023-04-14T11:03:12.616Z,6.15
2023-04-14T11:05:44.274Z,5.22
2023-04-14T11:08:17.503Z,6.82
2023-04-14T11:10:52.415Z,9.32
2023-04-14T11:13:22.295Z,4.82
2023-04-14T11:15:53.929Z,6.43
2023-04-14T11:18:37.235Z,6.97
2023-04-14T11:21:12.147Z,6.30
2023-04-14T11:23:41.000Z,6.22
2023-04-14T11:26:10.770Z,6.80
2023-04-14T11:28:43.415Z,5.18
2023-04-14T11:31:13.039Z,7.57
2023-04-14T11:33:42.661Z,6.32
2023-04-14T11:36:13.031Z,8.90
2023-04-14T11:38:41.721Z,8.07
2023-04-14T11:41:10.500Z,6.90
2023-04-14T11:43:46.512Z,4.25
2023-04-14T11:46:15.620Z,4.82
2023-04-14T11:48:44.273Z,4.30
2023-04-14T11:51:12.498Z,5.88
2023-04-14T11:53:41.279Z,4.40
2023-04-14T11:56:09.514Z,6.72
2023-04-14T11:58:38.131Z,4.13
2023-04-14T12:01:07.794Z,5.65
2023-04-14T12:03:39.375Z,4.68
2023-04-14T12:06:08.191Z,5.75
2023-04-14T12:08:37.693Z,6.65
2023-04-14T12:11:15.730Z,5.68
2023-04-14T12:13:45.008Z,3.03
2023-04-14T12:16:15.359Z,4.28
2023-04-14T12:18:44.275Z,4.65
2023-04-14T12:21:18.137Z,4.57
2023-04-14T12:23:49.576Z,3.10
2023-04-14T12:26:18.462Z,5.03
2023-04-14T12:28:47.257Z,4.78
2023-04-14T12:31:17.339Z,4.07
2023-04-14T12:33:45.892Z,4.57
2023-04-14T12:36:15.395Z,6.47
2023-04-14T12:38:49.001Z,6.15
2023-04-14T12:41:23.215Z,5.57
2023-04-14T12:43:51.757Z,4.72
2023-04-14T12:46:32.807Z,6.93
2023-04-14T12:49:01.616Z,6.68
2023-04-14T12:51:29.914Z,6.63
2023-04-14T12:54:07.484Z,4.80
2023-04-14T12:56:35.728Z,5.80
2023-04-14T12:59:05.228Z,7.80
2023-04-14T13:01:35.000Z,4.60
2023-04-14T13:04:05.479Z,5.15
2023-04-14T13:06:34.049Z,5.22
2023-04-14T13:09:03.139Z,5.93
2023-04-14T13:11:31.807Z,7.25
2023-04-14T13:14:00.329Z,5.78
2023-04-14T13:16:28.537Z,5.90
2023-04-14T13:18:59.368Z,8.70
2023-04-14T13:21:27.873Z,9.33
2023-04-14T13:23:56.533Z,5.53
2023-04-14T13:26:24.760Z,6.25
2023-04-14T13:28:53.264Z,8.18
2023-04-14T13:31:21.617Z,8.00
2023-04-14T13:33:50.138Z,6.95
2023-04-14T13:36:19.705Z,7.47
2023-04-14T13:38:48.452Z,5.82
2023-04-14T13:41:19.584Z,5.50
2023-04-14T13:43:48.443Z,6.03
2023-04-14T13:46:18.524Z,6.80
2023-04-14T13:48:47.716Z,5.97
2023-04-14T13:51:15.944Z,5.55
2023-04-14T13:53:47.006Z,8.35
2023-04-14T13:56:15.205Z,5.63
2023-04-14T13:58:44.022Z,6.03
2023-04-14T14:01:12.789Z,7.40
2023-04-14T14:03:42.368Z,7.22
2023-04-14T14:06:11.164Z,5.95
2023-04-14T14:08:42.223Z,8.27
2023-04-14T14:11:12.580Z,6.45
2023-04-14T14:13:41.170Z,9.88
2023-04-14T14:16:10.545Z,9.38
2023-04-14T14:18:40.030Z,9.65
2023-04-14T14:21:08.459Z,6.45
2023-04-14T14:23:36.892Z,6.32
2023-04-14T14:26:05.279Z,8.00
2023-04-14T14:28:35.186Z,7.55
2023-04-14T14:31:04.969Z,9.15
2023-04-14T14:36:02.793Z,10.70
2023-04-14T14:38:31.426Z,5.30
2023-04-14T14:40:59.687Z,5.95
2023-04-14T14:43:28.227Z,8.80
2023-04-14T14:45:57.899Z,7.30
2023-04-14T14:48:26.423Z,7.25
2023-04-14T14:50:54.610Z,6.20
2023-04-14T14:53:23.086Z,6.88
2023-04-14T14:55:51.307Z,8.07
2023-04-14T14:58:19.802Z,7.80
2023-04-14T15:00:48.024Z,7.32
2023-04-14T15:03:18.001Z,10.85
2023-04-14T15:05:46.598Z,8.00
2023-04-14T15:08:15.157Z,9.65
2023-04-14T15:10:43.378Z,16.85
2023-04-14T15:13:12.449Z,10.52
2023-04-14T15:15:40.712Z,6.63
2023-04-14T15:18:09.446Z,10.77
2023-04-14T15:20:39.434Z,8.20
2023-04-14T15:23:08.272Z,10.40
2023-04-14T15:25:36.595Z,8.40
2023-04-14T15:28:05.777Z,12.45
2023-04-14T15:30:34.096Z,8.68
2023-04-14T15:33:02.563Z,7.70
2023-04-14T15:35:30.746Z,8.13
2023-04-14T15:38:00.616Z,9.18
2023-04-14T15:40:28.814Z,5.93
2023-04-14T15:42:57.382Z,10.45
2023-04-14T15:45:25.903Z,9.00
2023-04-14T15:47:54.581Z,5.53
2023-04-14T15:50:22.799Z,7.43
2023-04-14T15:52:52.067Z,9.15
2023-04-14T15:55:21.933Z,8.20
2023-04-14T15:57:50.984Z,7.88
2023-04-14T16:00:20.208Z,7.93
2023-04-14T16:02:48.846Z,8.35
2023-04-14T16:05:17.439Z,8.43
2023-04-14T16:07:46.480Z,7.03
2023-04-14T16:10:15.752Z,9.00
2023-04-14T16:12:45.509Z,6.28
2023-04-14T16:15:13.787Z,7.10
2023-04-14T16:17:42.954Z,10.15
2023-04-14T16:20:12.691Z,10.05
2023-04-14T16:22:41.222Z,9.27
2023-04-14T16:25:10.378Z,6.50
2023-04-14T16:27:39.075Z,8.00
2023-04-14T16:30:09.727Z,9.63
2023-04-14T16:32:38.330Z,6.10
2023-04-14T16:35:07.530Z,6.80
2023-04-14T16:37:36.329Z,16.00
2023-04-14T16:40:05.077Z,11.32
2023-04-14T16:42:34.159Z,7.18
2023-04-14T16:45:02.436Z,11.25
2023-04-14T16:47:32.387Z,9.93
2023-04-14T16:50:00.856Z,9.32
2023-04-14T16:52:31.526Z,7.65
2023-04-14T16:55:03.244Z,10.13
2023-04-14T16:57:32.764Z,9.68
2023-04-14T17:00:01.198Z,10.75
2023-04-14T17:02:32.273Z,11.55
2023-04-14T17:05:00.843Z,8.20
2023-04-14T17:07:29.581Z,10.95
2023-04-14T17:09:57.910Z,7.65
2023-04-14T17:12:26.479Z,6.28
2023-04-14T17:14:54.752Z,10.73
2023-04-14T17:17:27.254Z,10.52
2023-04-14T17:19:57.052Z,11.55
2023-04-14T17:22:25.954Z,10.27
2023-04-14T17:24:54.567Z,8.20
2023-04-14T17:27:23.186Z,9.27
2023-04-14T17:29:51.361Z,10.52
2023-04-14T17:32:19.925Z,10.48
2023-04-14T17:34:49.233Z,10.15
2023-04-14T17:37:19.241Z,10.43
2023-04-14T17:39:49.245Z,9.60
2023-04-14T17:42:17.789Z,11.52
2023-04-14T17:44:46.118Z,10.95
2023-04-14T17:47:15.692Z,12.25
2023-04-14T17:49:44.050Z,9.07
2023-04-14T17:52:12.742Z,9.57
2023-04-14T17:54:42.334Z,10.50
2023-04-14T17:57:13.103Z,8.70
2023-04-14T17:59:41.763Z,11.70
2023-04-14T18:02:14.113Z,12.75
2023-04-14T18:04:42.792Z,10.38
2023-04-14T18:07:11.441Z,10.52
2023-04-14T18:09:39.698Z,9.18
2023-04-14T18:12:10.823Z,10.43
2023-04-14T18:14:39.607Z,13.48
2023-04-14T18:17:08.203Z,15.60
2023-04-14T18:19:36.672Z,24.42
2023-04-14T18:22:05.190Z,19.25
2023-04-14T18:29:38.685Z,12.23
2023-04-14T18:32:07.416Z,10.55
2023-04-14T18:34:35.998Z,11.85
2023-04-14T18:37:04.789Z,12.68
2023-04-14T18:39:34.478Z,12.48
2023-04-14T18:42:03.526Z,11.13
2023-04-14T18:44:31.811Z,11.10
2023-04-14T18:47:01.676Z,13.75
2023-04-14T18:49:30.365Z,14.43
2023-04-14T18:51:58.853Z,13.13
2023-04-14T18:54:27.194Z,15.18
2023-04-14T18:56:55.795Z,14.60
2023-04-14T18:59:24.783Z,11.73
2023-04-14T19:01:53.812Z,12.93
2023-04-14T19:04:23.945Z,14.70
2023-04-14T19:06:52.479Z,14.77
2023-04-14T19:09:21.070Z,13.20
2023-04-14T19:11:49.913Z,13.77
2023-04-14T19:14:18.547Z,16.98
2023-04-14T19:16:47.304Z,13.15
2023-04-14T19:19:16.903Z,13.88
2023-04-14T19:21:47.124Z,10.68
2023-04-14T19:24:15.441Z,12.30
2023-04-14T19:26:43.898Z,10.60
2023-04-14T19:29:12.440Z,11.15
2023-04-14T19:31:41.040Z,12.68
2023-04-14T19:34:09.418Z,12.25
2023-04-14T19:36:41.332Z,12.70
2023-04-14T19:39:11.397Z,12.98
2023-04-14T19:41:40.045Z,12.80
2023-04-14T19:44:08.615Z,12.68
2023-04-14T19:46:37.481Z,17.08
2023-04-14T19:49:07.376Z,13.98
2023-04-14T19:51:36.701Z,11.80
2023-04-14T19:54:05.642Z,11.57
2023-04-14T19:56:35.834Z,13.80
2023-04-14T19:59:08.250Z,12.85
2023-04-14T20:01:38.931Z,12.85
2023-04-14T20:04:12.242Z,11.32
2023-04-14T20:06:42.878Z,12.85
2023-04-14T20:09:11.258Z,14.30
2023-04-14T20:11:41.240Z,13.55
2023-04-14T20:14:10.805Z,14.65
2023-04-14T20:16:39.775Z,15.98
2023-04-14T20:19:09.040Z,14.32
2023-04-14T20:21:37.664Z,15.27
2023-04-14T20:24:06.315Z,15.45
2023-04-14T20:26:35.277Z,16.30
2023-04-14T20:29:05.447Z,14.27
2023-04-14T20:31:34.298Z,14.40
2023-04-14T20:34:04.249Z,14.18
2023-04-14T20:36:36.092Z,15.10
2023-04-14T20:39:06.103Z,19.63
2023-04-14T20:41:36.529Z,15.35
2023-04-14T20:44:06.399Z,14.43
2023-04-14T20:46:35.454Z,14.57
2023-04-14T20:49:04.220Z,15.43
2023-04-14T20:51:33.375Z,14.73
2023-04-14T20:54:01.995Z,17.90
2023-04-14T20:56:30.951Z,21.88
2023-04-14T20:59:00.539Z,14.98
2023-04-14T21:01:31.481Z,18.20
2023-04-14T21:04:00.088Z,18.63
2023-04-14T21:06:31.142Z,17.05
2023-04-14T21:09:01.889Z,17.98
2023-04-14T21:11:30.954Z,16.98
2023-04-14T21:15:47.322Z,19.00
2023-04-14T21:16:49.572Z,16.48
2023-04-14T21:19:19.536Z,18.05
2023-04-14T21:21:48.134Z,13.95
2023-04-14T21:24:16.330Z,15.43
2023-04-14T21:26:44.857Z,14.55
2023-04-14T21:29:13.316Z,12.00
2023-04-14T21:31:41.842Z,19.05
2023-04-14T21:34:12.087Z,16.67
2023-04-14T21:36:41.265Z,17.90
2023-04-14T21:39:10.074Z,14.73
2023-04-14T21:41:38.646Z,16.60
2023-04-14T21:44:07.582Z,13.10
2023-04-14T21:46:36.821Z,14.63
2023-04-14T21:49:05.112Z,16.23
2023-04-14T21:51:35.069Z,17.45
2023-04-14T21:54:03.214Z,16.10
2023-04-14T21:56:31.685Z,15.70
2023-04-14T21:59:00.026Z,17.80
2023-04-14T22:01:29.928Z,17.08
2023-04-14T22:03:58.648Z,19.13
2023-04-14T22:06:27.825Z,15.55
2023-04-14T22:08:57.486Z,11.93
2023-04-14T22:11:26.062Z,12.95
2023-04-14T22:13:55.546Z,12.93
2023-04-14T22:16:24.163Z,10.93
2023-04-14T22:18:52.373Z,9.65
2023-04-14T22:21:20.925Z,11.68
2023-04-14T22:23:49.121Z,8.40
2023-04-14T22:26:19.719Z,7.82
2023-04-14T22:28:47.881Z,9.07
2023-04-14T22:31:16.811Z,9.85
2023-04-14T22:33:45.020Z,7.03
2023-04-14T22:36:13.548Z,6.97
2023-04-14T22:38:42.569Z,6.72
2023-04-14T22:41:11.021Z,7.43
2023-04-14T22:43:40.962Z,7.40
2023-04-14T22:46:09.544Z,9.02
2023-04-14T22:48:37.670Z,8.38
2023-04-14T22:51:06.401Z,5.00
2023-04-14T22:53:34.555Z,8.30
2023-04-14T22:56:03.785Z,5.95
2023-04-14T22:58:39.008Z,8.02
2023-04-14T23:01:21.261Z,6.55
2023-04-14T23:03:52.578Z,9.20
2023-04-14T23:06:36.104Z,8.07
2023-04-14T23:09:05.673Z,6.40
2023-04-14T23:11:34.294Z,6.13
2023-04-14T23:14:02.788Z,6.55
2023-04-14T23:16:32.762Z,6.45
2023-04-14T23:19:01.389Z,5.30
2023-04-14T23:21:30.340Z,4.55
2023-04-14T23:23:58.500Z,9.05
2023-04-14T23:26:27.566Z,7.13
2023-04-14T23:28:55.892Z,8.45
2023-04-14T23:31:24.443Z,11.25
2023-04-14T23:33:53.968Z,9.75
2023-04-14T23:36:22.660Z,8.32
2023-04-14T23:38:50.869Z,12.45
2023-04-14T23:41:19.680Z,7.47
2023-04-14T23:43:49.654Z,7.63
2023-04-14T23:46:18.592Z,7.20
2023-04-14T23:48:47.501Z,6.50
2023-04-14T23:51:22.860Z,4.38
2023-04-14T23:53:51.608Z,10.70
2023-04-14T23:56:20.138Z,5.70
2023-04-14T23:58:48.650Z,5.00
